createdAt,value
2018-04-29T00:02:21.975Z,4.17
2018-04-29T00:04:49.408Z,4.47
2018-04-29T00:07:17.624Z,5.20
2018-04-29T00:09:45.051Z,4.57
2018-04-29T00:12:12.483Z,5.33
2018-04-29T00:14:39.910Z,6.43
2018-04-29T00:17:07.360Z,5.80
2018-04-29T00:19:35.687Z,5.20
2018-04-29T00:22:03.902Z,4.70
2018-04-29T00:24:31.340Z,4.47
2018-04-29T00:26:58.774Z,5.73
2018-04-29T00:29:26.967Z,4.73
2018-04-29T00:31:54.410Z,5.27
2018-04-29T00:34:22.605Z,5.70
2018-04-29T00:36:50.036Z,5.57
2018-04-29T00:39:18.247Z,5.40
2018-04-29T00:41:45.706Z,4.80
2018-04-29T00:44:13.126Z,5.43
2018-04-29T00:46:41.438Z,5.87
2018-04-29T00:49:08.854Z,5.83
2018-04-29T00:51:49.060Z,5.13
2018-04-29T00:54:16.483Z,5.50
2018-04-29T00:56:43.914Z,5.43
2018-04-29T00:59:11.339Z,4.87
2018-04-29T01:01:38.779Z,6.03
2018-04-29T01:04:06.216Z,5.43
2018-04-29T01:06:34.402Z,5.70
2018-04-29T01:09:01.841Z,5.70
2018-04-29T01:11:30.058Z,5.53
2018-04-29T01:13:57.507Z,5.60
2018-04-29T01:16:24.945Z,5.57
2018-04-29T01:18:52.428Z,5.83
2018-04-29T01:21:19.855Z,5.17
2018-04-29T01:23:47.294Z,4.70
2018-04-29T01:26:15.502Z,4.90
2018-04-29T01:28:42.923Z,5.10
2018-04-29T01:31:11.134Z,5.47
2018-04-29T01:33:38.565Z,5.93
2018-04-29T01:36:07.479Z,5.40
2018-04-29T01:41:26.251Z,5.53
2018-04-29T01:43:53.671Z,5.97
2018-04-29T01:46:21.863Z,5.65
2018-04-29T01:48:49.302Z,5.00
2018-04-29T01:51:17.515Z,5.40
2018-04-29T01:53:44.960Z,5.50
2018-04-29T01:56:12.415Z,5.10
2018-04-29T01:58:39.839Z,5.33
2018-04-29T02:01:07.267Z,5.73
2018-04-29T02:03:34.706Z,5.23
2018-04-29T02:06:02.127Z,5.33
2018-04-29T02:08:30.331Z,5.77
2018-04-29T02:10:57.754Z,5.23
2018-04-29T02:13:25.950Z,5.57
2018-04-29T02:15:53.387Z,5.30
2018-04-29T02:18:21.579Z,5.50
2018-04-29T02:20:49.004Z,5.27
2018-04-29T02:23:16.455Z,5.77
2018-04-29T02:25:45.386Z,5.40
2018-04-29T02:28:12.826Z,5.10
2018-04-29T02:30:41.020Z,5.32
2018-04-29T02:33:08.463Z,4.83
2018-04-29T02:35:36.651Z,5.70
2018-04-29T02:38:04.083Z,5.93
2018-04-29T02:40:32.273Z,5.63
2018-04-29T02:42:59.715Z,5.03
2018-04-29T02:45:27.946Z,4.80
2018-04-29T02:47:55.386Z,5.53
2018-04-29T02:50:22.819Z,5.83
2018-04-29T02:52:50.249Z,4.93
2018-04-29T02:55:17.686Z,5.20
2018-04-29T02:57:45.199Z,5.90
2018-04-29T03:00:12.584Z,5.37
2018-04-29T03:02:40.035Z,5.50
2018-04-29T03:05:07.505Z,5.72
2018-04-29T03:07:34.936Z,4.87
2018-04-29T03:10:02.356Z,5.50
2018-04-29T03:12:30.550Z,5.17
2018-04-29T03:14:57.975Z,5.30
2018-04-29T03:17:25.428Z,5.73
2018-04-29T03:19:52.856Z,5.50
2018-04-29T03:22:20.283Z,5.40
2018-04-29T03:24:47.722Z,5.53
2018-04-29T03:27:15.915Z,5.18
2018-04-29T03:29:43.344Z,6.47
2018-04-29T03:32:11.539Z,5.60
2018-04-29T03:34:38.973Z,5.87
2018-04-29T03:37:07.395Z,5.90
2018-04-29T03:39:34.820Z,5.57
2018-04-29T03:42:03.012Z,5.60
2018-04-29T03:44:30.441Z,5.07
2018-04-29T03:46:57.872Z,6.20
2018-04-29T03:49:25.313Z,6.32
2018-04-29T03:51:52.734Z,5.60
2018-04-29T03:54:20.177Z,5.70
2018-04-29T03:56:48.368Z,6.00
2018-04-29T03:59:28.629Z,5.82
2018-04-29T04:02:08.015Z,5.37
2018-04-29T04:04:35.447Z,5.50
2018-04-29T04:07:02.871Z,6.17
2018-04-29T04:09:30.304Z,5.12
2018-04-29T04:11:57.727Z,5.90
2018-04-29T04:14:25.163Z,5.30
2018-04-29T04:16:52.582Z,5.20
2018-04-29T04:19:20.791Z,5.57
2018-04-29T04:21:48.209Z,4.70
2018-04-29T04:24:16.419Z,4.80
2018-04-29T04:26:43.851Z,4.77
2018-04-29T04:29:12.052Z,4.80
2018-04-29T04:31:39.476Z,4.62
2018-04-29T04:34:07.773Z,5.20
2018-04-29T04:36:35.107Z,5.10
2018-04-29T04:39:03.294Z,4.50
2018-04-29T04:41:31.487Z,4.60
2018-04-29T04:43:58.915Z,4.53
2018-04-29T04:46:27.119Z,5.17
2018-04-29T04:48:54.540Z,5.10
2018-04-29T04:51:22.736Z,5.07
2018-04-29T04:53:50.219Z,4.55
2018-04-29T04:56:17.640Z,5.10
2018-04-29T04:58:45.859Z,4.80
2018-04-29T05:01:13.289Z,4.30
2018-04-29T05:03:40.716Z,4.70
2018-04-29T05:06:08.163Z,4.43
2018-04-29T05:08:35.589Z,5.00
2018-04-29T05:11:03.048Z,5.37
2018-04-29T05:13:30.476Z,4.50
2018-04-29T05:15:57.914Z,5.16
2018-04-29T05:18:26.099Z,5.80
2018-04-29T05:20:53.543Z,5.23
2018-04-29T05:23:21.753Z,6.07
2018-04-29T05:25:49.187Z,5.80
2018-04-29T05:28:16.622Z,6.30
2018-04-29T05:30:44.078Z,6.37
2018-04-29T05:33:13.294Z,6.10
2018-04-29T05:35:41.499Z,5.43
2018-04-29T05:38:08.927Z,5.68
2018-04-29T05:40:37.131Z,5.67
2018-04-29T05:43:04.556Z,5.80
2018-04-29T05:45:32.759Z,6.20
2018-04-29T05:48:00.194Z,5.97
2018-04-29T05:50:27.626Z,5.50
2018-04-29T05:52:55.108Z,6.70
2018-04-29T05:55:22.548Z,5.80
2018-04-29T05:57:50.735Z,4.77
2018-04-29T06:00:18.929Z,5.75
2018-04-29T06:02:46.356Z,5.50
2018-04-29T06:05:14.598Z,5.50
2018-04-29T06:07:43.631Z,5.13
2018-04-29T06:10:11.822Z,5.50
2018-04-29T06:12:39.313Z,4.70
2018-04-29T06:15:06.767Z,5.60
2018-04-29T06:17:34.194Z,5.83
2018-04-29T06:20:01.675Z,4.67
2018-04-29T06:22:29.143Z,5.07
2018-04-29T06:24:56.573Z,5.07
2018-04-29T06:27:24.000Z,5.57
2018-04-29T06:29:52.214Z,5.90
2018-04-29T06:32:19.659Z,5.35
2018-04-29T06:34:47.102Z,5.00
2018-04-29T06:37:15.300Z,4.80
2018-04-29T06:39:42.726Z,5.00
2018-04-29T06:42:10.918Z,5.30
2018-04-29T06:44:38.351Z,4.67
2018-04-29T06:47:06.563Z,6.00
2018-04-29T06:49:33.983Z,5.60
2018-04-29T06:52:02.187Z,5.33
2018-04-29T06:54:29.620Z,4.67
2018-04-29T06:56:57.826Z,5.57
2018-04-29T06:59:25.253Z,5.53
2018-04-29T07:01:53.447Z,5.83
2018-04-29T07:04:20.866Z,5.23
2018-04-29T07:06:48.308Z,4.60
2018-04-29T07:09:17.245Z,4.80
2018-04-29T07:11:44.688Z,4.93
2018-04-29T07:14:12.186Z,4.80
2018-04-29T07:16:39.553Z,4.50
2018-04-29T07:19:06.980Z,4.57
2018-04-29T07:21:34.407Z,4.70
2018-04-29T07:24:02.604Z,5.10
2018-04-29T07:26:30.790Z,4.33
2018-04-29T07:28:58.989Z,4.63
2018-04-29T07:31:26.442Z,4.80
2018-04-29T07:33:53.880Z,4.37
2018-04-29T07:36:21.308Z,5.10
2018-04-29T07:38:49.512Z,5.27
2018-04-29T07:41:17.043Z,11.30
2018-04-29T07:43:45.257Z,4.33
2018-04-29T07:46:12.683Z,4.60
2018-04-29T07:48:40.116Z,4.10
2018-04-29T07:51:07.548Z,5.07
2018-04-29T07:53:34.973Z,4.57
2018-04-29T07:56:02.407Z,5.03
2018-04-29T07:58:30.630Z,4.53
2018-04-29T08:00:58.067Z,4.60
2018-04-29T08:03:25.541Z,4.50
2018-04-29T08:05:52.991Z,5.03
2018-04-29T08:08:20.424Z,4.40
2018-04-29T08:10:47.856Z,3.83
2018-04-29T08:13:16.365Z,3.90
2018-04-29T08:15:43.820Z,4.40
2018-04-29T08:18:12.005Z,4.20
2018-04-29T08:20:39.448Z,4.20
2018-04-29T08:23:06.896Z,4.47
2018-04-29T08:25:35.099Z,4.60
2018-04-29T08:28:02.548Z,4.25
2018-04-29T08:30:29.978Z,4.00
2018-04-29T08:32:58.180Z,4.20
2018-04-29T08:35:26.552Z,4.40
2018-04-29T08:37:53.990Z,3.97
2018-04-29T08:40:22.187Z,4.63
2018-04-29T08:42:50.417Z,4.10
2018-04-29T08:45:18.612Z,3.67
2018-04-29T08:47:46.823Z,4.90
2018-04-29T08:50:14.354Z,4.40
2018-04-29T08:52:41.712Z,4.40
2018-04-29T08:55:09.159Z,4.70
2018-04-29T08:57:37.351Z,4.57
2018-04-29T09:00:04.789Z,4.60
2018-04-29T09:02:32.995Z,4.17
2018-04-29T09:05:00.439Z,4.00
2018-04-29T09:07:27.875Z,4.63
2018-04-29T09:09:56.085Z,4.50
2018-04-29T09:12:23.520Z,4.13
2018-04-29T09:14:51.707Z,3.57
2018-04-29T09:17:19.189Z,4.20
2018-04-29T09:19:46.640Z,4.60
2018-04-29T09:22:14.087Z,3.43
2018-04-29T09:24:41.528Z,4.17
2018-04-29T09:27:08.980Z,3.83
2018-04-29T09:29:36.403Z,4.03
2018-04-29T09:32:03.844Z,4.53
2018-04-29T09:34:31.271Z,3.43
2018-04-29T09:36:58.724Z,3.43
2018-04-29T09:39:26.913Z,4.20
2018-04-29T09:41:54.342Z,3.43
2018-04-29T09:44:21.771Z,3.97
2018-04-29T09:46:49.201Z,3.80
2018-04-29T09:49:16.643Z,4.10
2018-04-29T09:51:44.079Z,4.17
2018-04-29T09:54:11.508Z,4.00
2018-04-29T09:56:39.697Z,3.67
2018-04-29T09:59:07.127Z,3.50
2018-04-29T10:01:35.322Z,4.00
2018-04-29T10:04:03.524Z,4.03
2018-04-29T10:06:30.983Z,4.10
2018-04-29T10:08:58.447Z,5.03
2018-04-29T10:11:25.901Z,3.90
2018-04-29T10:13:53.340Z,4.20
2018-04-29T10:16:20.769Z,4.30
2018-04-29T10:18:49.007Z,3.87
2018-04-29T10:21:16.430Z,4.10
2018-04-29T10:23:43.883Z,4.10
2018-04-29T10:26:11.323Z,4.30
2018-04-29T10:28:39.538Z,4.43
2018-04-29T10:31:06.967Z,3.83
2018-04-29T10:33:34.392Z,4.70
2018-04-29T10:36:01.811Z,4.40
2018-04-29T10:38:29.268Z,4.00
2018-04-29T10:40:56.732Z,3.67
2018-04-29T10:43:24.128Z,3.40
2018-04-29T10:45:55.278Z,4.20
2018-04-29T10:48:23.476Z,3.73
2018-04-29T10:50:50.925Z,4.27
2018-04-29T10:53:18.424Z,4.13
2018-04-29T10:55:46.335Z,4.17
2018-04-29T10:58:14.540Z,4.30
2018-04-29T11:00:41.972Z,3.60
2018-04-29T11:03:10.164Z,4.30
2018-04-29T11:05:37.592Z,3.80
2018-04-29T11:08:05.025Z,4.50
2018-04-29T11:10:32.448Z,3.60
2018-04-29T11:12:59.880Z,3.63
2018-04-29T11:15:27.311Z,4.33
2018-04-29T11:17:54.747Z,3.43
2018-04-29T11:20:22.188Z,4.20
2018-04-29T11:22:49.619Z,4.10
2018-04-29T11:25:17.048Z,3.87
2018-04-29T11:27:45.248Z,4.23
2018-04-29T11:30:12.684Z,4.45
2018-04-29T11:32:40.888Z,4.30
2018-04-29T11:35:08.372Z,4.30
2018-04-29T11:37:35.811Z,4.30
2018-04-29T11:40:03.254Z,4.37
2018-04-29T11:42:48.446Z,4.00
2018-04-29T11:45:15.889Z,4.03
2018-04-29T11:47:43.338Z,4.80
2018-04-29T11:50:10.833Z,3.80
2018-04-29T11:52:38.261Z,3.97
2018-04-29T11:55:06.496Z,3.72
2018-04-29T11:57:33.944Z,4.20
2018-04-29T12:00:01.376Z,4.20
2018-04-29T12:02:28.831Z,4.23
2018-04-29T12:04:56.264Z,4.03
2018-04-29T12:07:23.709Z,4.10
2018-04-29T12:09:51.956Z,4.50
2018-04-29T12:12:19.329Z,4.90
2018-04-29T12:14:47.542Z,3.47
2018-04-29T12:17:14.985Z,4.13
2018-04-29T12:19:42.433Z,4.33
2018-04-29T12:22:09.892Z,4.17
2018-04-29T12:24:37.349Z,3.80
2018-04-29T12:27:05.528Z,3.90
2018-04-29T12:29:32.984Z,4.47
2018-04-29T12:32:00.418Z,3.90
2018-04-29T12:34:28.625Z,3.70
2018-04-29T12:36:56.053Z,3.37
2018-04-29T12:39:24.272Z,3.80
2018-04-29T12:41:51.706Z,4.43
2018-04-29T12:44:19.170Z,4.10
2018-04-29T12:46:46.683Z,3.45
2018-04-29T12:49:14.103Z,3.80
2018-04-29T12:51:41.537Z,4.40
2018-04-29T12:54:08.965Z,4.17
2018-04-29T12:56:37.174Z,3.33
2018-04-29T12:59:04.616Z,3.30
2018-04-29T13:01:34.320Z,3.53
2018-04-29T13:04:01.780Z,4.10
2018-04-29T13:06:29.212Z,3.20
2018-04-29T13:08:57.408Z,3.63
2018-04-29T13:11:24.843Z,3.40
2018-04-29T13:13:52.288Z,3.28
2018-04-29T13:16:19.729Z,3.30
2018-04-29T13:18:47.177Z,3.20
2018-04-29T13:21:14.607Z,4.43
2018-04-29T13:23:43.401Z,3.50
2018-04-29T13:26:10.845Z,3.37
2018-04-29T13:28:38.279Z,3.70
2018-04-29T13:31:06.475Z,3.37
2018-04-29T13:33:33.921Z,3.17
2018-04-29T13:36:02.173Z,3.35
2018-04-29T13:38:29.571Z,3.10
2018-04-29T13:40:57.007Z,3.03
2018-04-29T13:43:25.197Z,3.23
2018-04-29T13:45:53.509Z,3.43
2018-04-29T13:48:20.944Z,4.53
2018-04-29T13:50:48.386Z,3.53
2018-04-29T13:53:15.830Z,3.37
2018-04-29T13:55:44.027Z,3.17
2018-04-29T13:58:11.461Z,2.83
2018-04-29T14:00:39.683Z,3.30
2018-04-29T14:03:07.111Z,3.20
2018-04-29T14:05:34.557Z,3.23
2018-04-29T14:08:03.621Z,2.80
2018-04-29T14:10:31.128Z,2.80
2018-04-29T14:12:58.545Z,2.50
2018-04-29T14:15:25.937Z,2.80
2018-04-29T14:17:53.392Z,2.70
2018-04-29T14:20:20.829Z,3.28
2018-04-29T14:22:49.056Z,3.00
2018-04-29T14:25:16.517Z,3.63
2018-04-29T14:27:43.957Z,2.90
2018-04-29T14:30:11.398Z,3.43
2018-04-29T14:32:38.905Z,3.57
2018-04-29T14:35:06.359Z,3.97
2018-04-29T14:37:33.808Z,3.20
2018-04-29T14:40:01.263Z,3.77
2018-04-29T14:42:28.693Z,3.33
2018-04-29T14:44:56.120Z,3.70
2018-04-29T14:47:24.336Z,4.23
2018-04-29T14:49:51.780Z,3.20
2018-04-29T14:52:25.717Z,3.03
2018-04-29T14:54:53.139Z,3.53
2018-04-29T14:57:20.600Z,3.80
2018-04-29T14:59:48.039Z,4.40
2018-04-29T15:02:16.250Z,4.13
2018-04-29T15:04:43.688Z,3.40
2018-04-29T15:07:11.123Z,4.10
2018-04-29T15:09:39.325Z,3.47
2018-04-29T15:12:06.765Z,3.80
2018-04-29T15:14:34.208Z,4.20
2018-04-29T15:17:02.425Z,3.77
2018-04-29T15:19:41.832Z,4.00
2018-04-29T15:22:09.265Z,3.80
2018-04-29T15:24:37.604Z,4.00
2018-04-29T15:27:05.061Z,4.50
2018-04-29T15:29:32.528Z,4.07
2018-04-29T15:31:59.959Z,3.90
2018-04-29T15:34:27.392Z,4.20
2018-04-29T15:36:54.847Z,5.12
2018-04-29T15:39:22.297Z,3.70
2018-04-29T15:41:50.521Z,5.20
2018-04-29T15:44:17.975Z,4.83
2018-04-29T15:46:45.416Z,4.13
2018-04-29T15:49:12.863Z,4.57
2018-04-29T15:51:40.297Z,5.23
2018-04-29T15:54:08.484Z,4.23
2018-04-29T15:56:36.010Z,4.57
2018-04-29T15:59:03.440Z,4.60
2018-04-29T16:01:30.888Z,5.30
2018-04-29T16:03:58.332Z,4.53
2018-04-29T16:06:25.772Z,4.47
2018-04-29T16:08:53.213Z,4.50
2018-04-29T16:11:21.439Z,4.63
2018-04-29T16:13:59.160Z,4.53
2018-04-29T16:16:26.616Z,5.53
2018-04-29T16:18:54.052Z,4.97
2018-04-29T16:21:21.494Z,5.07
2018-04-29T16:23:48.947Z,4.40
2018-04-29T16:26:16.365Z,4.20
2018-04-29T16:28:44.583Z,4.67
2018-04-29T16:31:13.433Z,4.43
2018-04-29T16:33:40.817Z,5.00
2018-04-29T16:36:08.234Z,4.20
2018-04-29T16:38:35.684Z,4.67
2018-04-29T16:41:03.109Z,4.60
2018-04-29T16:43:30.558Z,4.13
2018-04-29T16:45:57.993Z,4.33
2018-04-29T16:48:25.451Z,5.00
2018-04-29T16:50:52.893Z,5.20
2018-04-29T16:53:21.115Z,4.60
2018-04-29T16:55:48.544Z,4.33
2018-04-29T16:58:16.048Z,4.80
2018-04-29T17:00:43.489Z,4.43
2018-04-29T17:03:10.926Z,4.33
2018-04-29T17:05:38.356Z,4.87
2018-04-29T17:08:06.566Z,4.70
2018-04-29T17:10:33.997Z,4.70
2018-04-29T17:13:02.216Z,4.87
2018-04-29T17:15:29.648Z,4.47
2018-04-29T17:17:57.090Z,3.87
2018-04-29T17:20:24.519Z,4.30
2018-04-29T17:22:52.762Z,4.43
2018-04-29T17:25:20.171Z,4.40
2018-04-29T17:27:47.620Z,4.10
2018-04-29T17:30:15.827Z,6.20
2018-04-29T17:32:43.421Z,4.77
2018-04-29T17:35:10.949Z,4.03
2018-04-29T17:37:38.413Z,4.00
2018-04-29T17:40:05.842Z,4.43
2018-04-29T17:42:33.340Z,4.00
2018-04-29T17:45:00.774Z,4.33
2018-04-29T17:47:28.223Z,3.83
2018-04-29T17:49:55.658Z,4.10
2018-04-29T17:52:23.906Z,4.40
2018-04-29T17:54:51.340Z,4.70
2018-04-29T17:57:18.809Z,4.30
2018-04-29T17:59:46.245Z,4.70
2018-04-29T18:02:13.672Z,3.80
2018-04-29T18:04:41.132Z,4.20
2018-04-29T18:07:08.582Z,4.47
2018-04-29T18:09:36.785Z,4.50
2018-04-29T18:12:04.219Z,4.70
2018-04-29T18:14:31.726Z,5.20
2018-04-29T18:16:59.151Z,4.87
2018-04-29T18:19:26.605Z,6.50
2018-04-29T18:21:54.051Z,5.67
2018-04-29T18:24:21.480Z,6.60
2018-04-29T18:26:49.721Z,7.03
2018-04-29T18:29:17.176Z,6.40
2018-04-29T18:31:44.633Z,6.27
2018-04-29T18:34:13.307Z,6.47
2018-04-29T18:36:40.743Z,5.50
2018-04-29T18:39:08.193Z,5.27
2018-04-29T18:41:36.396Z,4.90
2018-04-29T18:44:03.846Z,5.60
2018-04-29T18:46:31.281Z,6.07
2018-04-29T18:48:58.772Z,6.00
2018-04-29T18:51:26.282Z,4.40
2018-04-29T18:53:53.717Z,6.03
2018-04-29T18:56:27.310Z,5.80
2018-04-29T18:58:54.791Z,5.40
2018-04-29T19:01:22.238Z,5.13
2018-04-29T19:03:51.238Z,5.50
2018-04-29T19:06:18.692Z,4.83
2018-04-29T19:08:46.170Z,4.80
2018-04-29T19:11:14.400Z,4.90
2018-04-29T19:13:41.856Z,5.57
2018-04-29T19:16:09.315Z,5.97
2018-04-29T19:18:36.768Z,5.70
2018-04-29T19:21:04.234Z,5.90
2018-04-29T19:23:31.763Z,5.97
2018-04-29T19:25:59.207Z,6.27
2018-04-29T19:28:26.661Z,5.80
2018-04-29T19:30:54.088Z,5.85
2018-04-29T19:33:21.542Z,6.00
2018-04-29T19:35:49.035Z,6.70
2018-04-29T19:38:16.414Z,6.47
2018-04-29T19:40:45.290Z,7.07
2018-04-29T19:43:12.729Z,6.30
2018-04-29T19:45:40.928Z,5.80
2018-04-29T19:48:08.356Z,6.40
2018-04-29T19:50:36.574Z,5.43
2018-04-29T19:53:04.007Z,6.37
2018-04-29T19:55:31.447Z,5.50
2018-04-29T19:57:58.881Z,4.90
2018-04-29T20:00:27.099Z,5.77
2018-04-29T20:02:56.115Z,6.17
2018-04-29T20:05:23.947Z,5.30
2018-04-29T20:07:52.131Z,5.63
2018-04-29T20:10:19.622Z,6.18
2018-04-29T20:12:47.068Z,5.63
2018-04-29T20:15:14.519Z,5.37
2018-04-29T20:17:41.949Z,5.70
2018-04-29T20:20:09.395Z,6.50
2018-04-29T20:22:37.597Z,5.97
2018-04-29T20:25:06.382Z,6.63
2018-04-29T20:27:33.816Z,6.50
2018-04-29T20:30:02.049Z,5.80
2018-04-29T20:32:54.280Z,6.83
2018-04-29T20:35:21.753Z,8.80
2018-04-29T20:37:49.202Z,6.20
2018-04-29T20:40:16.636Z,6.30
2018-04-29T20:42:44.066Z,6.27
2018-04-29T20:45:11.508Z,6.70
2018-04-29T20:47:39.709Z,7.20
2018-04-29T20:50:07.141Z,6.03
2018-04-29T20:52:35.348Z,7.63
2018-04-29T20:55:02.796Z,6.60
2018-04-29T20:57:30.236Z,7.43
2018-04-29T20:59:58.451Z,6.30
2018-04-29T21:02:25.924Z,6.97
2018-04-29T21:04:53.364Z,7.20
2018-04-29T21:07:20.795Z,6.53
2018-04-29T21:09:48.235Z,5.67
2018-04-29T21:12:16.439Z,6.40
2018-04-29T21:14:43.880Z,6.80
2018-04-29T21:17:11.375Z,7.30
2018-04-29T21:19:39.537Z,6.87
2018-04-29T21:22:06.975Z,7.17
2018-04-29T21:24:34.403Z,5.90
2018-04-29T21:27:02.615Z,6.93
2018-04-29T21:29:30.052Z,5.00
2018-04-29T21:31:57.521Z,5.93
2018-04-29T21:34:24.967Z,6.07
2018-04-29T21:36:53.204Z,6.97
2018-04-29T21:39:22.150Z,6.40
2018-04-29T21:41:49.587Z,5.93
2018-04-29T21:44:17.795Z,7.43
2018-04-29T21:46:45.235Z,6.80
2018-04-29T21:49:12.672Z,6.80
2018-04-29T21:51:40.892Z,6.30
2018-04-29T21:54:08.330Z,6.10
2018-04-29T21:56:35.907Z,6.27
2018-04-29T21:59:03.352Z,6.03
2018-04-29T22:01:30.786Z,5.73
2018-04-29T22:03:58.225Z,5.53
2018-04-29T22:06:25.680Z,5.97
2018-04-29T22:08:53.908Z,5.03
2018-04-29T22:11:21.337Z,4.90
2018-04-29T22:13:48.769Z,4.97
2018-04-29T22:16:17.014Z,4.20
2018-04-29T22:18:44.457Z,4.20
2018-04-29T22:21:12.684Z,3.87
2018-04-29T22:23:40.885Z,5.17
2018-04-29T22:26:08.328Z,3.95
2018-04-29T22:28:36.525Z,4.20
2018-04-29T22:31:03.990Z,4.07
2018-04-29T22:33:31.421Z,4.10
2018-04-29T22:35:58.868Z,4.20
2018-04-29T22:38:27.089Z,4.07
2018-04-29T22:40:54.530Z,4.32
2018-04-29T22:43:21.962Z,4.60
2018-04-29T22:45:50.180Z,3.70
2018-04-29T22:48:17.612Z,4.10
2018-04-29T22:50:45.055Z,4.20
2018-04-29T22:53:12.532Z,4.53
2018-04-29T22:55:39.974Z,4.20
2018-04-29T22:58:07.404Z,4.17
2018-04-29T23:00:35.612Z,3.83
2018-04-29T23:03:03.097Z,5.03
2018-04-29T23:05:30.523Z,4.10
2018-04-29T23:07:57.972Z,4.57
2018-04-29T23:10:25.579Z,4.77
2018-04-29T23:12:53.039Z,4.80
2018-04-29T23:15:20.476Z,5.10
2018-04-29T23:17:47.926Z,5.40
2018-04-29T23:20:15.369Z,5.30
2018-04-29T23:22:42.799Z,4.53
2018-04-29T23:25:11.000Z,5.30
2018-04-29T23:27:38.438Z,5.30
2018-04-29T23:30:06.646Z,6.73
2018-04-29T23:32:36.356Z,7.28
2018-04-29T23:35:03.784Z,6.13
2018-04-29T23:37:31.986Z,6.47
2018-04-29T23:39:59.413Z,6.53
2018-04-29T23:42:28.572Z,6.30
2018-04-29T23:44:56.013Z,5.70
2018-04-29T23:47:23.445Z,4.67
2018-04-29T23:49:50.873Z,4.87
2018-04-29T23:52:19.125Z,4.97
2018-04-29T23:54:46.585Z,4.50
2018-04-29T23:57:14.024Z,3.77
2018-04-29T23:59:41.459Z,4.70
